Im Poliny Osipenko, Russia
Current Conditions -  °F | °C
As of 9:30 PM on Saturday 20 Dec 2014 (Local Time) from UHHH Reporting Station
Clear Clear  
Wind Chill: -15°   Ceiling: Unl
Heat Index: -15°   Visibility: 6mi
Dew Point: -18°   Wind: 2mph
Humidity: 84%   Direction: 260°W
Pressure: 29.91"   Gusts: NA
Location:  52.42°N, 136.5°E
Report Text: UHHH 201130Z 26001MPS CAVOK M26/M28 Q1013 NOSIG RMK QFE753/10052385//50
Loading
Personal Weather Stations






























Interactive Weather Map New forecast layout! Learn more

10-Day Weather Forecast

Advertisements
Track Severe Weather on mobile